sensor_id;sensor_type;location;lat;lon;timestamp;temperature;humidity
18777;DHT22;9517;51.174;4.160;2024-01-15T00:01:56;2.90;99.90
18777;DHT22;9517;51.174;4.160;2024-01-15T00:04:23;2.90;99.90
18777;DHT22;9517;51.174;4.160;2024-01-15T00:06:50;2.80;99.90
18777;DHT22;9517;51.174;4.160;2024-01-15T00:09:17;2.80;99.90
18777;DHT22;9517;51.174;4.160;2024-01-15T00:11:44;3.10;99.90
18777;DHT22;9517;51.174;4.160;2024-01-15T00:14:11;3.20;99.90
18777;DHT22;9517;51.174;4.160;2024-01-15T00:16:41;3.20;99.90
18777;DHT22;9517;51.174;4.160;2024-01-15T00:19:08;3.10;99.90
18777;DHT22;9517;51.174;4.160;2024-01-15T00:21:35;2.90;99.90
18777;DHT22;9517;51.174;4.160;2024-01-15T00:24:03;2.80;99.90
18777;DHT22;9517;51.174;4.160;2024-01-15T00:26:30;2.90;99.90
18777;DHT22;9517;51.174;4.160;2024-01-15T00:28:57;3.00;99.90
18777;DHT22;9517;51.174;4.160;2024-01-15T00:31:24;3.00;99.90
18777;DHT22;9517;51.174;4.160;2024-01-15T00:33:53;2.90;99.90
18777;DHT22;9517;51.174;4.160;2024-01-15T00:36:20;2.90;99.90
18777;DHT22;9517;51.174;4.160;2024-01-15T00:38:47;2.90;99.90
18777;DHT22;9517;51.174;4.160;2024-01-15T00:41:14;2.80;99.90
18777;DHT22;9517;51.174;4.160;2024-01-15T00:43:41;2.90;99.90
18777;DHT22;9517;51.174;4.160;2024-01-15T00:46:08;2.80;99.90
18777;DHT22;9517;51.174;4.160;2024-01-15T00:48:35;2.90;99.90
18777;DHT22;9517;51.174;4.160;2024-01-15T00:51:04;2.80;99.90
18777;DHT22;9517;51.174;4.160;2024-01-15T00:53:31;2.80;99.90
18777;DHT22;9517;51.174;4.160;2024-01-15T00:55:58;2.80;99.90
18777;DHT22;9517;51.174;4.160;2024-01-15T00:58:25;2.80;99.90
18777;DHT22;9517;51.174;4.160;2024-01-15T01:00:53;2.80;99.90
18777;DHT22;9517;51.174;4.160;2024-01-15T01:03:20;2.80;99.90
18777;DHT22;9517;51.174;4.160;2024-01-15T01:05:48;2.80;99.90
18777;DHT22;9517;51.174;4.160;2024-01-15T01:08:17;2.70;99.90
18777;DHT22;9517;51.174;4.160;2024-01-15T01:10:44;2.70;99.90
18777;DHT22;9517;51.174;4.160;2024-01-15T01:13:11;2.70;99.90
18777;DHT22;9517;51.174;4.160;2024-01-15T01:15:38;2.70;99.90
18777;DHT22;9517;51.174;4.160;2024-01-15T01:18:05;2.80;99.90
18777;DHT22;9517;51.174;4.160;2024-01-15T01:20:32;2.80;99.90
18777;DHT22;9517;51.174;4.160;2024-01-15T01:22:59;2.80;99.90
18777;DHT22;9517;51.174;4.160;2024-01-15T01:25:28;2.80;99.90
18777;DHT22;9517;51.174;4.160;2024-01-15T01:27:54;2.90;99.90
18777;DHT22;9517;51.174;4.160;2024-01-15T01:30:21;2.80;99.90
18777;DHT22;9517;51.174;4.160;2024-01-15T01:32:48;2.90;99.90
18777;DHT22;9517;51.174;4.160;2024-01-15T01:35:15;2.90;99.90
18777;DHT22;9517;51.174;4.160;2024-01-15T01:37:42;2.80;99.90
18777;DHT22;9517;51.174;4.160;2024-01-15T01:40:10;2.80;99.90
18777;DHT22;9517;51.174;4.160;2024-01-15T01:42:38;2.80;99.90
18777;DHT22;9517;51.174;4.160;2024-01-15T01:45:06;2.90;99.90
18777;DHT22;9517;51.174;4.160;2024-01-15T01:47:33;2.90;99.90
18777;DHT22;9517;51.174;4.160;2024-01-15T01:50:01;3.00;99.90
18777;DHT22;9517;51.174;4.160;2024-01-15T01:52:29;2.90;99.90
18777;DHT22;9517;51.174;4.160;2024-01-15T01:54:57;3.00;99.90
18777;DHT22;9517;51.174;4.160;2024-01-15T01:57:25;3.00;99.90
18777;DHT22;9517;51.174;4.160;2024-01-15T01:59:54;3.10;99.90
18777;DHT22;9517;51.174;4.160;2024-01-15T02:02:22;3.10;99.90
18777;DHT22;9517;51.174;4.160;2024-01-15T02:04:50;3.10;99.90
18777;DHT22;9517;51.174;4.160;2024-01-15T02:07:17;3.00;99.90
18777;DHT22;9517;51.174;4.160;2024-01-15T02:09:44;3.10;99.90
18777;DHT22;9517;51.174;4.160;2024-01-15T02:12:11;3.10;99.90
18777;DHT22;9517;51.174;4.160;2024-01-15T02:14:39;3.00;99.90
18777;DHT22;9517;51.174;4.160;2024-01-15T02:17:07;3.10;99.90
18777;DHT22;9517;51.174;4.160;2024-01-15T02:19:35;3.10;99.90
18777;DHT22;9517;51.174;4.160;2024-01-15T02:22:02;3.00;99.90
18777;DHT22;9517;51.174;4.160;2024-01-15T02:24:30;3.00;99.90
18777;DHT22;9517;51.174;4.160;2024-01-15T02:26:58;3.00;99.90
18777;DHT22;9517;51.174;4.160;2024-01-15T02:29:25;3.00;99.90
18777;DHT22;9517;51.174;4.160;2024-01-15T02:31:52;3.00;99.90
18777;DHT22;9517;51.174;4.160;2024-01-15T02:34:19;2.90;99.90
18777;DHT22;9517;51.174;4.160;2024-01-15T02:36:46;2.90;99.90
18777;DHT22;9517;51.174;4.160;2024-01-15T02:39:13;2.80;99.90
18777;DHT22;9517;51.174;4.160;2024-01-15T02:41:41;2.70;99.90
18777;DHT22;9517;51.174;4.160;2024-01-15T02:44:09;2.80;99.90
18777;DHT22;9517;51.174;4.160;2024-01-15T02:46:36;2.70;99.90
18777;DHT22;9517;51.174;4.160;2024-01-15T02:49:02;2.80;99.90
18777;DHT22;9517;51.174;4.160;2024-01-15T02:51:30;2.70;99.90
18777;DHT22;9517;51.174;4.160;2024-01-15T02:53:57;2.70;99.90
18777;DHT22;9517;51.174;4.160;2024-01-15T02:56:24;2.80;99.90
18777;DHT22;9517;51.174;4.160;2024-01-15T02:58:52;2.70;99.90
18777;DHT22;9517;51.174;4.160;2024-01-15T03:01:19;2.70;99.90
18777;DHT22;9517;51.174;4.160;2024-01-15T03:03:47;2.70;99.90
18777;DHT22;9517;51.174;4.160;2024-01-15T03:06:14;2.70;99.90
18777;DHT22;9517;51.174;4.160;2024-01-15T03:08:41;2.80;99.90
18777;DHT22;9517;51.174;4.160;2024-01-15T03:11:09;2.70;99.90
18777;DHT22;9517;51.174;4.160;2024-01-15T03:13:36;2.80;99.90
18777;DHT22;9517;51.174;4.160;2024-01-15T03:16:05;2.80;99.90
18777;DHT22;9517;51.174;4.160;2024-01-15T03:18:32;2.80;99.90
18777;DHT22;9517;51.174;4.160;2024-01-15T03:21:00;2.80;99.90
18777;DHT22;9517;51.174;4.160;2024-01-15T03:23:27;2.80;99.90
18777;DHT22;9517;51.174;4.160;2024-01-15T03:25:55;2.90;99.90
18777;DHT22;9517;51.174;4.160;2024-01-15T03:28:22;2.90;99.90
18777;DHT22;9517;51.174;4.160;2024-01-15T03:30:49;2.90;99.90
18777;DHT22;9517;51.174;4.160;2024-01-15T03:33:17;2.80;99.90
18777;DHT22;9517;51.174;4.160;2024-01-15T03:35:44;2.80;99.90
18777;DHT22;9517;51.174;4.160;2024-01-15T03:38:11;2.80;99.90
18777;DHT22;9517;51.174;4.160;2024-01-15T03:40:39;2.80;99.90
18777;DHT22;9517;51.174;4.160;2024-01-15T03:43:06;2.80;99.90
18777;DHT22;9517;51.174;4.160;2024-01-15T03:45:33;2.70;99.90
18777;DHT22;9517;51.174;4.160;2024-01-15T03:48:00;2.70;99.90
18777;DHT22;9517;51.174;4.160;2024-01-15T03:50:28;2.60;99.90
18777;DHT22;9517;51.174;4.160;2024-01-15T03:52:55;2.60;99.90
18777;DHT22;9517;51.174;4.160;2024-01-15T03:55:22;2.50;99.90
18777;DHT22;9517;51.174;4.160;2024-01-15T03:57:49;2.50;99.90
18777;DHT22;9517;51.174;4.160;2024-01-15T04:00:18;2.40;99.90
18777;DHT22;9517;51.174;4.160;2024-01-15T04:02:46;2.40;99.90
18777;DHT22;9517;51.174;4.160;2024-01-15T04:05:13;2.30;99.90
18777;DHT22;9517;51.174;4.160;2024-01-15T04:07:41;2.30;99.90
18777;DHT22;9517;51.174;4.160;2024-01-15T04:10:09;2.20;99.90
18777;DHT22;9517;51.174;4.160;2024-01-15T04:12:36;2.10;99.90
18777;DHT22;9517;51.174;4.160;2024-01-15T04:15:04;2.00;99.90
18777;DHT22;9517;51.174;4.160;2024-01-15T04:17:31;2.00;99.90
18777;DHT22;9517;51.174;4.160;2024-01-15T04:19:58;2.00;99.90
18777;DHT22;9517;51.174;4.160;2024-01-15T04:22:25;2.00;99.90
18777;DHT22;9517;51.174;4.160;2024-01-15T04:24:54;1.90;99.90
18777;DHT22;9517;51.174;4.160;2024-01-15T04:27:21;1.90;99.90
18777;DHT22;9517;51.174;4.160;2024-01-15T04:29:48;1.90;99.90
18777;DHT22;9517;51.174;4.160;2024-01-15T04:32:15;1.80;99.90
18777;DHT22;9517;51.174;4.160;2024-01-15T04:34:42;1.80;99.90
18777;DHT22;9517;51.174;4.160;2024-01-15T04:37:13;1.70;99.90
18777;DHT22;9517;51.174;4.160;2024-01-15T04:39:40;1.80;99.90
18777;DHT22;9517;51.174;4.160;2024-01-15T04:42:09;1.70;99.90
18777;DHT22;9517;51.174;4.160;2024-01-15T04:44:36;1.70;99.90
18777;DHT22;9517;51.174;4.160;2024-01-15T04:47:04;1.70;99.90
18777;DHT22;9517;51.174;4.160;2024-01-15T04:49:33;1.70;99.90
18777;DHT22;9517;51.174;4.160;2024-01-15T04:52:02;1.70;99.90
18777;DHT22;9517;51.174;4.160;2024-01-15T04:54:31;1.70;99.90
18777;DHT22;9517;51.174;4.160;2024-01-15T04:56:58;1.70;99.90
18777;DHT22;9517;51.174;4.160;2024-01-15T04:59:26;1.60;99.90
18777;DHT22;9517;51.174;4.160;2024-01-15T05:01:54;1.60;99.90
18777;DHT22;9517;51.174;4.160;2024-01-15T05:04:21;1.60;99.90
18777;DHT22;9517;51.174;4.160;2024-01-15T05:06:50;1.70;99.90
18777;DHT22;9517;51.174;4.160;2024-01-15T05:09:17;1.60;99.90
18777;DHT22;9517;51.174;4.160;2024-01-15T05:11:44;1.70;99.90
18777;DHT22;9517;51.174;4.160;2024-01-15T05:14:11;1.60;99.90
18777;DHT22;9517;51.174;4.160;2024-01-15T05:16:44;1.70;99.90
18777;DHT22;9517;51.174;4.160;2024-01-15T05:19:13;1.60;99.90
18777;DHT22;9517;51.174;4.160;2024-01-15T05:21:40;1.60;99.90
18777;DHT22;9517;51.174;4.160;2024-01-15T05:24:08;1.70;99.90
18777;DHT22;9517;51.174;4.160;2024-01-15T05:26:35;1.70;99.90
18777;DHT22;9517;51.174;4.160;2024-01-15T05:29:02;1.80;99.90
18777;DHT22;9517;51.174;4.160;2024-01-15T05:31:29;1.80;99.90
18777;DHT22;9517;51.174;4.160;2024-01-15T05:33:58;1.70;99.90
18777;DHT22;9517;51.174;4.160;2024-01-15T05:36:27;1.70;99.90
18777;DHT22;9517;51.174;4.160;2024-01-15T05:38:55;1.70;99.90
18777;DHT22;9517;51.174;4.160;2024-01-15T05:41:22;1.70;99.90
18777;DHT22;9517;51.174;4.160;2024-01-15T05:43:49;1.70;99.90
18777;DHT22;9517;51.174;4.160;2024-01-15T05:46:17;1.60;99.90
18777;DHT22;9517;51.174;4.160;2024-01-15T05:48:48;1.80;99.90
18777;DHT22;9517;51.174;4.160;2024-01-15T05:51:17;1.70;99.90
18777;DHT22;9517;51.174;4.160;2024-01-15T05:54:38;1.80;99.90
18777;DHT22;9517;51.174;4.160;2024-01-15T06:00:47;1.80;99.90
18777;DHT22;9517;51.174;4.160;2024-01-15T06:03:31;1.70;99.90
18777;DHT22;9517;51.174;4.160;2024-01-15T06:11:11;1.60;99.90
18777;DHT22;9517;51.174;4.160;2024-01-15T06:13:38;1.70;99.90
18777;DHT22;9517;51.174;4.160;2024-01-15T06:16:13;1.70;99.90
18777;DHT22;9517;51.174;4.160;2024-01-15T06:18:41;1.80;99.90
18777;DHT22;9517;51.174;4.160;2024-01-15T06:21:10;1.70;99.90
18777;DHT22;9517;51.174;4.160;2024-01-15T06:23:42;1.70;99.90
18777;DHT22;9517;51.174;4.160;2024-01-15T06:26:27;1.80;99.90
18777;DHT22;9517;51.174;4.160;2024-01-15T06:28:55;1.70;99.90
18777;DHT22;9517;51.174;4.160;2024-01-15T06:31:23;1.80;99.90
18777;DHT22;9517;51.174;4.160;2024-01-15T06:33:50;1.80;99.90
18777;DHT22;9517;51.174;4.160;2024-01-15T06:36:41;1.80;99.90
18777;DHT22;9517;51.174;4.160;2024-01-15T06:39:23;1.80;99.90
18777;DHT22;9517;51.174;4.160;2024-01-15T06:41:53;1.90;99.90
18777;DHT22;9517;51.174;4.160;2024-01-15T06:44:20;1.90;99.90
18777;DHT22;9517;51.174;4.160;2024-01-15T06:47:06;2.00;99.90
18777;DHT22;9517;51.174;4.160;2024-01-15T06:49:34;2.10;99.90
18777;DHT22;9517;51.174;4.160;2024-01-15T06:52:01;2.10;99.90
18777;DHT22;9517;51.174;4.160;2024-01-15T06:54:29;2.00;99.90
18777;DHT22;9517;51.174;4.160;2024-01-15T06:56:58;2.10;99.90
18777;DHT22;9517;51.174;4.160;2024-01-15T06:59:27;2.10;99.90
18777;DHT22;9517;51.174;4.160;2024-01-15T07:01:54;2.20;99.90
18777;DHT22;9517;51.174;4.160;2024-01-15T07:04:22;2.20;99.90
18777;DHT22;9517;51.174;4.160;2024-01-15T07:06:49;2.30;99.90
18777;DHT22;9517;51.174;4.160;2024-01-15T07:09:17;2.30;99.90
18777;DHT22;9517;51.174;4.160;2024-01-15T07:11:45;2.30;99.90
18777;DHT22;9517;51.174;4.160;2024-01-15T07:14:15;2.40;99.90
18777;DHT22;9517;51.174;4.160;2024-01-15T07:16:43;2.40;99.90
18777;DHT22;9517;51.174;4.160;2024-01-15T07:19:10;2.40;99.90
18777;DHT22;9517;51.174;4.160;2024-01-15T07:21:37;2.50;99.90
18777;DHT22;9517;51.174;4.160;2024-01-15T07:24:08;2.40;99.90
18777;DHT22;9517;51.174;4.160;2024-01-15T07:26:36;2.50;99.90
18777;DHT22;9517;51.174;4.160;2024-01-15T07:29:04;2.40;99.90
18777;DHT22;9517;51.174;4.160;2024-01-15T07:31:33;2.50;99.90
18777;DHT22;9517;51.174;4.160;2024-01-15T07:34:01;2.50;99.90
18777;DHT22;9517;51.174;4.160;2024-01-15T07:36:28;2.60;99.90
18777;DHT22;9517;51.174;4.160;2024-01-15T07:38:55;2.60;99.90
18777;DHT22;9517;51.174;4.160;2024-01-15T07:41:22;2.60;99.90
18777;DHT22;9517;51.174;4.160;2024-01-15T07:43:49;2.50;99.90
18777;DHT22;9517;51.174;4.160;2024-01-15T07:46:16;2.50;99.90
18777;DHT22;9517;51.174;4.160;2024-01-15T07:48:45;2.60;99.90
18777;DHT22;9517;51.174;4.160;2024-01-15T07:51:12;2.60;99.90
18777;DHT22;9517;51.174;4.160;2024-01-15T07:53:39;2.60;99.90
18777;DHT22;9517;51.174;4.160;2024-01-15T07:56:06;2.70;99.90
18777;DHT22;9517;51.174;4.160;2024-01-15T07:58:33;2.60;99.90
18777;DHT22;9517;51.174;4.160;2024-01-15T08:01:01;2.70;99.90
18777;DHT22;9517;51.174;4.160;2024-01-15T08:03:28;2.80;99.90
18777;DHT22;9517;51.174;4.160;2024-01-15T08:05:57;2.80;99.90
18777;DHT22;9517;51.174;4.160;2024-01-15T08:08:25;2.80;99.90
18777;DHT22;9517;51.174;4.160;2024-01-15T08:10:53;2.70;99.90
18777;DHT22;9517;51.174;4.160;2024-01-15T08:13:20;2.70;99.90
18777;DHT22;9517;51.174;4.160;2024-01-15T08:15:47;2.70;99.90
18777;DHT22;9517;51.174;4.160;2024-01-15T08:18:15;2.60;99.90
18777;DHT22;9517;51.174;4.160;2024-01-15T08:20:43;2.70;99.90
18777;DHT22;9517;51.174;4.160;2024-01-15T08:23:11;2.70;99.90
18777;DHT22;9517;51.174;4.160;2024-01-15T08:25:39;2.60;99.90
18777;DHT22;9517;51.174;4.160;2024-01-15T08:28:06;2.70;99.90
18777;DHT22;9517;51.174;4.160;2024-01-15T08:30:34;2.70;99.90
18777;DHT22;9517;51.174;4.160;2024-01-15T08:33:01;2.60;99.90
18777;DHT22;9517;51.174;4.160;2024-01-15T08:35:28;2.60;99.90
18777;DHT22;9517;51.174;4.160;2024-01-15T08:37:56;2.60;99.90
18777;DHT22;9517;51.174;4.160;2024-01-15T08:40:25;2.60;99.90
18777;DHT22;9517;51.174;4.160;2024-01-15T08:42:53;2.50;99.90
18777;DHT22;9517;51.174;4.160;2024-01-15T08:45:20;2.50;99.90
18777;DHT22;9517;51.174;4.160;2024-01-15T08:47:49;2.50;99.90
18777;DHT22;9517;51.174;4.160;2024-01-15T08:50:17;2.40;99.90
18777;DHT22;9517;51.174;4.160;2024-01-15T08:52:44;2.40;99.90
18777;DHT22;9517;51.174;4.160;2024-01-15T08:55:12;2.40;99.90
18777;DHT22;9517;51.174;4.160;2024-01-15T08:57:43;2.30;99.90
18777;DHT22;9517;51.174;4.160;2024-01-15T09:00:11;2.40;99.90
18777;DHT22;9517;51.174;4.160;2024-01-15T09:02:38;2.50;99.90
18777;DHT22;9517;51.174;4.160;2024-01-15T09:05:26;2.60;99.90
18777;DHT22;9517;51.174;4.160;2024-01-15T09:08:00;2.80;99.90
18777;DHT22;9517;51.174;4.160;2024-01-15T09:10:31;2.90;99.90
18777;DHT22;9517;51.174;4.160;2024-01-15T09:13:04;3.10;99.90
18777;DHT22;9517;51.174;4.160;2024-01-15T09:15:31;3.20;99.90
18777;DHT22;9517;51.174;4.160;2024-01-15T09:17:58;3.20;99.90
18777;DHT22;9517;51.174;4.160;2024-01-15T09:20:28;3.30;99.90
18777;DHT22;9517;51.174;4.160;2024-01-15T09:22:55;3.40;99.90
18777;DHT22;9517;51.174;4.160;2024-01-15T09:25:23;3.40;99.90
18777;DHT22;9517;51.174;4.160;2024-01-15T09:27:50;3.40;99.90
18777;DHT22;9517;51.174;4.160;2024-01-15T09:30:19;3.40;99.90
18777;DHT22;9517;51.174;4.160;2024-01-15T09:32:46;3.30;99.90
18777;DHT22;9517;51.174;4.160;2024-01-15T09:35:14;3.40;99.90
18777;DHT22;9517;51.174;4.160;2024-01-15T09:37:44;3.40;99.90
18777;DHT22;9517;51.174;4.160;2024-01-15T09:40:13;3.50;99.90
18777;DHT22;9517;51.174;4.160;2024-01-15T09:42:42;3.60;99.90
18777;DHT22;9517;51.174;4.160;2024-01-15T09:45:10;3.70;99.90
18777;DHT22;9517;51.174;4.160;2024-01-15T09:47:40;3.70;99.90
18777;DHT22;9517;51.174;4.160;2024-01-15T09:50:09;3.70;99.90
18777;DHT22;9517;51.174;4.160;2024-01-15T09:52:37;3.80;99.90
18777;DHT22;9517;51.174;4.160;2024-01-15T09:55:07;3.80;99.90
18777;DHT22;9517;51.174;4.160;2024-01-15T09:57:36;3.70;99.90
18777;DHT22;9517;51.174;4.160;2024-01-15T10:00:06;3.70;99.90
18777;DHT22;9517;51.174;4.160;2024-01-15T10:02:36;3.80;99.90
18777;DHT22;9517;51.174;4.160;2024-01-15T10:05:06;4.00;99.90
18777;DHT22;9517;51.174;4.160;2024-01-15T10:07:37;4.20;99.90
18777;DHT22;9517;51.174;4.160;2024-01-15T10:10:08;4.10;99.90
18777;DHT22;9517;51.174;4.160;2024-01-15T10:12:39;4.10;99.90
18777;DHT22;9517;51.174;4.160;2024-01-15T10:15:09;4.10;99.90
18777;DHT22;9517;51.174;4.160;2024-01-15T10:17:37;4.30;99.90
18777;DHT22;9517;51.174;4.160;2024-01-15T10:20:10;4.30;99.90
18777;DHT22;9517;51.174;4.160;2024-01-15T10:22:40;4.30;99.90
18777;DHT22;9517;51.174;4.160;2024-01-15T10:25:10;4.30;99.90
18777;DHT22;9517;51.174;4.160;2024-01-15T10:27:40;4.50;99.90
18777;DHT22;9517;51.174;4.160;2024-01-15T10:30:09;4.60;99.90
18777;DHT22;9517;51.174;4.160;2024-01-15T10:32:40;4.50;99.90
18777;DHT22;9517;51.174;4.160;2024-01-15T10:35:10;4.30;99.90
18777;DHT22;9517;51.174;4.160;2024-01-15T10:37:37;4.20;99.90
18777;DHT22;9517;51.174;4.160;2024-01-15T10:40:05;4.10;99.90
18777;DHT22;9517;51.174;4.160;2024-01-15T10:42:33;4.00;99.90
18777;DHT22;9517;51.174;4.160;2024-01-15T10:45:10;4.00;99.90
18777;DHT22;9517;51.174;4.160;2024-01-15T10:47:38;4.00;99.90
18777;DHT22;9517;51.174;4.160;2024-01-15T10:50:06;4.30;99.90
18777;DHT22;9517;51.174;4.160;2024-01-15T10:52:37;4.60;99.90
18777;DHT22;9517;51.174;4.160;2024-01-15T10:55:07;4.50;99.90
18777;DHT22;9517;51.174;4.160;2024-01-15T10:57:35;4.40;99.90
18777;DHT22;9517;51.174;4.160;2024-01-15T11:00:02;4.30;99.90
18777;DHT22;9517;51.174;4.160;2024-01-15T11:02:32;4.40;99.90
18777;DHT22;9517;51.174;4.160;2024-01-15T11:04:59;4.50;99.90
18777;DHT22;9517;51.174;4.160;2024-01-15T11:07:26;4.40;99.90
18777;DHT22;9517;51.174;4.160;2024-01-15T11:09:55;4.20;99.90
18777;DHT22;9517;51.174;4.160;2024-01-15T11:12:24;4.20;99.90
18777;DHT22;9517;51.174;4.160;2024-01-15T11:14:51;4.20;99.90
18777;DHT22;9517;51.174;4.160;2024-01-15T11:18:05;4.10;99.90
18777;DHT22;9517;51.174;4.160;2024-01-15T11:20:37;4.00;99.90
18777;DHT22;9517;51.174;4.160;2024-01-15T11:23:05;4.10;99.90
18777;DHT22;9517;51.174;4.160;2024-01-15T11:25:36;4.10;99.90
18777;DHT22;9517;51.174;4.160;2024-01-15T11:28:04;4.20;99.90
18777;DHT22;9517;51.174;4.160;2024-01-15T11:30:31;4.40;99.90
18777;DHT22;9517;51.174;4.160;2024-01-15T11:33:03;4.40;99.90
18777;DHT22;9517;51.174;4.160;2024-01-15T11:35:48;4.30;99.90
18777;DHT22;9517;51.174;4.160;2024-01-15T11:38:27;4.30;99.90
18777;DHT22;9517;51.174;4.160;2024-01-15T11:41:01;5.30;99.90
18777;DHT22;9517;51.174;4.160;2024-01-15T11:43:40;6.40;99.90
18777;DHT22;9517;51.174;4.160;2024-01-15T11:46:11;7.10;99.90
18777;DHT22;9517;51.174;4.160;2024-01-15T11:48:43;7.10;99.90
18777;DHT22;9517;51.174;4.160;2024-01-15T11:51:12;6.10;99.90
18777;DHT22;9517;51.174;4.160;2024-01-15T11:53:45;6.30;99.90
18777;DHT22;9517;51.174;4.160;2024-01-15T11:56:22;7.30;99.90
18777;DHT22;9517;51.174;4.160;2024-01-15T11:58:51;7.30;99.90
18777;DHT22;9517;51.174;4.160;2024-01-15T12:01:22;7.00;99.90
18777;DHT22;9517;51.174;4.160;2024-01-15T12:03:49;6.60;99.90
18777;DHT22;9517;51.174;4.160;2024-01-15T12:06:18;5.90;99.90
18777;DHT22;9517;51.174;4.160;2024-01-15T12:08:45;5.50;99.90
18777;DHT22;9517;51.174;4.160;2024-01-15T12:11:15;5.20;99.90
18777;DHT22;9517;51.174;4.160;2024-01-15T12:13:46;4.90;99.90
18777;DHT22;9517;51.174;4.160;2024-01-15T12:16:13;4.10;99.90
18777;DHT22;9517;51.174;4.160;2024-01-15T12:18:41;3.70;99.90
18777;DHT22;9517;51.174;4.160;2024-01-15T12:21:09;3.40;99.90
18777;DHT22;9517;51.174;4.160;2024-01-15T12:23:37;3.40;99.90
18777;DHT22;9517;51.174;4.160;2024-01-15T12:26:05;3.60;99.90
18777;DHT22;9517;51.174;4.160;2024-01-15T12:28:33;3.70;99.90
18777;DHT22;9517;51.174;4.160;2024-01-15T12:31:01;3.60;99.90
18777;DHT22;9517;51.174;4.160;2024-01-15T12:33:31;3.30;99.90
18777;DHT22;9517;51.174;4.160;2024-01-15T12:35:58;3.00;99.90
18777;DHT22;9517;51.174;4.160;2024-01-15T12:38:25;2.70;99.90
18777;DHT22;9517;51.174;4.160;2024-01-15T12:40:55;2.40;99.90
18777;DHT22;9517;51.174;4.160;2024-01-15T12:43:23;2.20;99.90
18777;DHT22;9517;51.174;4.160;2024-01-15T12:45:52;2.20;99.90
18777;DHT22;9517;51.174;4.160;2024-01-15T12:48:20;2.20;99.90
18777;DHT22;9517;51.174;4.160;2024-01-15T12:50:47;2.30;99.90
18777;DHT22;9517;51.174;4.160;2024-01-15T12:53:15;2.40;99.90
18777;DHT22;9517;51.174;4.160;2024-01-15T12:55:43;3.10;99.90
18777;DHT22;9517;51.174;4.160;2024-01-15T12:58:10;3.60;99.90
18777;DHT22;9517;51.174;4.160;2024-01-15T13:00:38;3.40;99.90
18777;DHT22;9517;51.174;4.160;2024-01-15T13:03:07;3.30;99.90
18777;DHT22;9517;51.174;4.160;2024-01-15T13:05:34;3.40;99.90
18777;DHT22;9517;51.174;4.160;2024-01-15T13:08:02;3.10;99.90
18777;DHT22;9517;51.174;4.160;2024-01-15T13:10:30;2.70;99.90
18777;DHT22;9517;51.174;4.160;2024-01-15T13:12:57;2.30;99.90
18777;DHT22;9517;51.174;4.160;2024-01-15T13:15:24;2.10;99.90
18777;DHT22;9517;51.174;4.160;2024-01-15T13:17:52;1.90;99.90
18777;DHT22;9517;51.174;4.160;2024-01-15T13:20:21;1.80;99.90
18777;DHT22;9517;51.174;4.160;2024-01-15T13:22:48;1.70;99.90
18777;DHT22;9517;51.174;4.160;2024-01-15T13:25:16;1.70;99.90
18777;DHT22;9517;51.174;4.160;2024-01-15T13:27:43;1.70;99.90
18777;DHT22;9517;51.174;4.160;2024-01-15T13:30:11;2.00;99.90
18777;DHT22;9517;51.174;4.160;2024-01-15T13:32:39;3.10;99.90
18777;DHT22;9517;51.174;4.160;2024-01-15T13:35:07;3.70;99.90
18777;DHT22;9517;51.174;4.160;2024-01-15T13:37:40;3.80;99.90
18777;DHT22;9517;51.174;4.160;2024-01-15T13:40:09;4.70;99.90
18777;DHT22;9517;51.174;4.160;2024-01-15T13:42:41;6.10;99.90
18777;DHT22;9517;51.174;4.160;2024-01-15T13:45:09;6.50;99.90
18777;DHT22;9517;51.174;4.160;2024-01-15T13:47:39;5.40;99.90
18777;DHT22;9517;51.174;4.160;2024-01-15T13:50:08;4.70;99.90
18777;DHT22;9517;51.174;4.160;2024-01-15T13:52:36;3.60;99.90
18777;DHT22;9517;51.174;4.160;2024-01-15T13:55:05;3.00;99.90
18777;DHT22;9517;51.174;4.160;2024-01-15T13:57:35;2.60;99.90
18777;DHT22;9517;51.174;4.160;2024-01-15T14:00:02;2.60;99.90
18777;DHT22;9517;51.174;4.160;2024-01-15T14:02:35;2.50;99.90
18777;DHT22;9517;51.174;4.160;2024-01-15T14:05:02;2.50;99.90
18777;DHT22;9517;51.174;4.160;2024-01-15T14:07:29;2.50;99.90
18777;DHT22;9517;51.174;4.160;2024-01-15T14:09:57;2.70;99.90
18777;DHT22;9517;51.174;4.160;2024-01-15T14:12:26;3.50;99.90
18777;DHT22;9517;51.174;4.160;2024-01-15T14:14:55;4.20;99.90
18777;DHT22;9517;51.174;4.160;2024-01-15T14:17:22;4.40;99.90
18777;DHT22;9517;51.174;4.160;2024-01-15T14:19:49;4.20;99.90
18777;DHT22;9517;51.174;4.160;2024-01-15T14:22:16;3.90;99.90
18777;DHT22;9517;51.174;4.160;2024-01-15T14:24:43;3.50;99.90
18777;DHT22;9517;51.174;4.160;2024-01-15T14:27:10;3.40;99.90
18777;DHT22;9517;51.174;4.160;2024-01-15T14:29:40;3.70;99.90
18777;DHT22;9517;51.174;4.160;2024-01-15T14:32:07;3.80;99.90
18777;DHT22;9517;51.174;4.160;2024-01-15T14:34:34;3.70;99.90
18777;DHT22;9517;51.174;4.160;2024-01-15T14:37:03;3.70;99.90
18777;DHT22;9517;51.174;4.160;2024-01-15T14:39:30;3.60;99.90
18777;DHT22;9517;51.174;4.160;2024-01-15T14:42:00;3.60;99.90
18777;DHT22;9517;51.174;4.160;2024-01-15T14:44:27;3.70;99.90
18777;DHT22;9517;51.174;4.160;2024-01-15T14:46:56;4.20;99.90
18777;DHT22;9517;51.174;4.160;2024-01-15T14:49:24;4.70;99.90
18777;DHT22;9517;51.174;4.160;2024-01-15T14:51:51;4.80;99.90
18777;DHT22;9517;51.174;4.160;2024-01-15T14:54:18;4.60;99.90
18777;DHT22;9517;51.174;4.160;2024-01-15T14:56:46;4.30;99.90
18777;DHT22;9517;51.174;4.160;2024-01-15T14:59:14;4.30;99.90
18777;DHT22;9517;51.174;4.160;2024-01-15T15:01:41;4.20;99.90
18777;DHT22;9517;51.174;4.160;2024-01-15T15:04:10;4.00;99.90
18777;DHT22;9517;51.174;4.160;2024-01-15T15:06:37;3.90;99.90
18777;DHT22;9517;51.174;4.160;2024-01-15T15:09:04;4.00;99.90
18777;DHT22;9517;51.174;4.160;2024-01-15T15:11:35;4.00;99.90
18777;DHT22;9517;51.174;4.160;2024-01-15T15:14:03;3.70;99.90
18777;DHT22;9517;51.174;4.160;2024-01-15T15:16:30;3.70;99.90
18777;DHT22;9517;51.174;4.160;2024-01-15T15:18:58;3.50;99.90
18777;DHT22;9517;51.174;4.160;2024-01-15T15:21:26;3.40;99.90
18777;DHT22;9517;51.174;4.160;2024-01-15T15:23:55;3.30;99.90
18777;DHT22;9517;51.174;4.160;2024-01-15T15:26:23;3.40;99.90
18777;DHT22;9517;51.174;4.160;2024-01-15T15:28:50;3.30;99.90
18777;DHT22;9517;51.174;4.160;2024-01-15T15:31:17;3.20;99.90
18777;DHT22;9517;51.174;4.160;2024-01-15T15:33:45;3.20;99.90
18777;DHT22;9517;51.174;4.160;2024-01-15T15:36:12;3.00;99.90
18777;DHT22;9517;51.174;4.160;2024-01-15T15:38:42;3.00;99.90
18777;DHT22;9517;51.174;4.160;2024-01-15T15:41:09;2.90;99.90
18777;DHT22;9517;51.174;4.160;2024-01-15T15:43:37;2.80;99.90
18777;DHT22;9517;51.174;4.160;2024-01-15T15:46:04;2.80;99.90
18777;DHT22;9517;51.174;4.160;2024-01-15T15:48:31;2.80;99.90
18777;DHT22;9517;51.174;4.160;2024-01-15T15:50:58;2.80;99.90
18777;DHT22;9517;51.174;4.160;2024-01-15T15:53:27;2.80;99.90
18777;DHT22;9517;51.174;4.160;2024-01-15T15:55:56;2.90;99.90
18777;DHT22;9517;51.174;4.160;2024-01-15T15:58:24;3.00;99.90
18777;DHT22;9517;51.174;4.160;2024-01-15T16:00:52;3.10;99.90
18777;DHT22;9517;51.174;4.160;2024-01-15T16:03:22;3.10;99.90
18777;DHT22;9517;51.174;4.160;2024-01-15T16:05:49;3.20;99.90
18777;DHT22;9517;51.174;4.160;2024-01-15T16:08:17;3.00;99.90
18777;DHT22;9517;51.174;4.160;2024-01-15T16:10:48;2.90;99.90
18777;DHT22;9517;51.174;4.160;2024-01-15T16:13:18;2.80;99.90
18777;DHT22;9517;51.174;4.160;2024-01-15T16:15:46;2.80;99.90
18777;DHT22;9517;51.174;4.160;2024-01-15T16:18:13;2.70;99.90
18777;DHT22;9517;51.174;4.160;2024-01-15T16:20:41;2.70;99.90